Time;durP1;ratioP1;P1;durP2;ratioP2;P2;SDS_P1;SDS_P2;PMS_P1;PMS_P2;Temp;Humidity;BMP_temperature;BMP_pressure;BME280_temperature;BME280_humidity;BME280_pressure;Samples;Min_cycle;Max_cycle;Signal;HPM_P1;HPM_P2
2023/01/16 00:00:04;;;;;;;1.60;0.73;;;5.10;99.90;;;;;;5043849;28;20032;-77
2023/01/16 00:02:30;;;;;;;0.80;0.52;;;5.10;99.90;;;;;;5045124;28;20033;-77
2023/01/16 00:04:56;;;;;;;3.08;0.60;;;5.10;99.90;;;;;;5044592;28;20021;-77
2023/01/16 00:07:21;;;;;;;1.02;0.90;;;5.10;99.90;;;;;;5059381;28;20028;-76
2023/01/16 00:09:47;;;;;;;1.73;0.90;;;5.10;99.90;;;;;;5058034;28;20025;-77
2023/01/16 00:12:12;;;;;;;1.90;0.80;;;5.00;99.90;;;;;;5057793;28;20086;-76
2023/01/16 00:14:38;;;;;;;1.13;1.02;;;5.00;99.90;;;;;;5057302;28;20025;-77
2023/01/16 00:17:04;;;;;;;1.00;0.90;;;5.00;99.90;;;;;;5057327;28;20514;-77
2023/01/16 00:19:29;;;;;;;1.13;1.00;;;5.00;99.90;;;;;;5040095;28;20372;-76
2023/01/16 00:21:55;;;;;;;2.13;0.77;;;4.90;99.90;;;;;;5039184;28;20036;-77
2023/01/16 00:24:21;;;;;;;2.20;1.02;;;4.90;99.90;;;;;;5056877;28;20108;-77
2023/01/16 00:26:50;;;;;;;1.10;0.82;;;4.90;99.90;;;;;;5057319;28;20037;-76
2023/01/16 00:29:16;;;;;;;1.00;0.80;;;4.90;99.90;;;;;;5038967;28;20052;-77
2023/01/16 00:31:42;;;;;;;1.38;0.60;;;4.90;99.90;;;;;;5038499;28;20067;-77
2023/01/16 00:34:07;;;;;;;1.20;0.80;;;4.80;99.90;;;;;;5038979;28;20051;-76
2023/01/16 00:36:33;;;;;;;1.27;0.70;;;4.80;99.90;;;;;;5038912;28;20063;-77
2023/01/16 00:38:59;;;;;;;1.13;0.55;;;4.80;99.90;;;;;;5057023;28;20028;-77
2023/01/16 00:41:25;;;;;;;0.50;0.50;;;4.80;99.90;;;;;;5038804;28;20041;-76
2023/01/16 00:43:51;;;;;;;0.70;0.70;;;4.80;99.90;;;;;;5056650;28;20036;-76
2023/01/16 00:46:17;;;;;;;0.85;0.63;;;4.80;99.90;;;;;;5038683;28;20463;-77
2023/01/16 00:48:43;;;;;;;0.80;0.80;;;4.80;99.90;;;;;;5038931;28;20032;-76
2023/01/16 00:51:08;;;;;;;1.25;0.82;;;4.80;99.90;;;;;;5038911;28;20441;-76
2023/01/16 00:53:34;;;;;;;0.82;0.82;;;4.80;99.90;;;;;;5037204;28;20032;-76
2023/01/16 00:56:00;;;;;;;0.73;0.73;;;4.70;99.90;;;;;;5056122;28;20021;-76
2023/01/16 00:58:25;;;;;;;1.85;0.50;;;4.70;99.90;;;;;;5038419;28;20025;-77
2023/01/16 01:00:51;;;;;;;0.95;0.70;;;4.70;99.90;;;;;;5038215;28;20025;-76
2023/01/16 01:03:17;;;;;;;2.55;1.10;;;4.70;99.90;;;;;;5056597;28;20082;-76
2023/01/16 01:05:42;;;;;;;0.80;0.70;;;4.70;99.90;;;;;;5038263;28;20394;-76
2023/01/16 01:08:08;;;;;;;1.00;0.73;;;4.70;99.90;;;;;;5056235;28;20108;-76
2023/01/16 01:10:37;;;;;;;0.68;0.50;;;4.60;99.90;;;;;;5055763;28;20032;-76
2023/01/16 01:13:03;;;;;;;1.15;0.70;;;4.60;99.90;;;;;;5056174;28;20017;-76
2023/01/16 01:15:28;;;;;;;1.52;0.60;;;4.60;99.90;;;;;;5055704;28;20040;-77
2023/01/16 01:17:54;;;;;;;1.08;0.60;;;4.60;99.90;;;;;;5038169;28;20060;-76
2023/01/16 01:20:20;;;;;;;1.98;0.73;;;4.60;99.90;;;;;;5038206;28;20025;-77
2023/01/16 01:22:46;;;;;;;0.50;0.40;;;4.60;99.90;;;;;;5038889;28;20031;-77
2023/01/16 01:25:12;;;;;;;0.80;0.55;;;4.60;99.90;;;;;;5038827;28;20446;-76
2023/01/16 01:27:38;;;;;;;2.22;0.60;;;4.60;99.90;;;;;;5038097;28;20087;-77
2023/01/16 01:30:04;;;;;;;0.60;0.52;;;4.60;99.90;;;;;;5056339;28;20060;-77
2023/01/16 01:32:30;;;;;;;1.23;0.35;;;4.50;99.90;;;;;;5055511;28;20144;-77
2023/01/16 01:34:56;;;;;;;0.77;0.50;;;4.60;99.90;;;;;;5038574;28;20119;-77
2023/01/16 01:37:21;;;;;;;0.47;0.45;;;4.60;99.90;;;;;;5055618;28;20488;-76
2023/01/16 01:39:47;;;;;;;2.85;0.30;;;4.60;99.90;;;;;;5037791;28;20072;-77
2023/01/16 01:45:20;;;;;;;0.82;0.40;;;4.60;99.90;;;;;;5055590;28;20036;-77
2023/01/16 01:48:12;;;;;;;1.50;0.40;;;4.60;99.90;;;;;;5036563;28;20064;-77
2023/01/16 01:50:57;;;;;;;2.13;0.30;;;4.60;99.90;;;;;;5023813;28;20041;-77
2023/01/16 01:53:41;;;;;;;1.17;0.32;;;4.50;99.90;;;;;;5055331;28;20031;-76
2023/01/16 01:56:15;;;;;;;0.28;0.28;;;4.50;99.90;;;;;;5037447;28;20489;-77
2023/01/16 01:58:42;;;;;;;1.13;0.30;;;4.50;99.90;;;;;;5055757;28;20489;-76
2023/01/16 02:01:08;;;;;;;2.65;0.43;;;4.50;99.90;;;;;;5054843;28;20028;-76
2023/01/16 02:03:42;;;;;;;0.98;0.20;;;4.50;99.90;;;;;;5037086;28;20028;-76
2023/01/16 02:06:17;;;;;;;1.33;0.15;;;4.50;99.90;;;;;;5037138;28;20379;-76
2023/01/16 02:08:44;;;;;;;0.50;0.10;;;4.50;99.90;;;;;;5055136;28;20025;-76
2023/01/16 02:11:25;;;;;;;0.40;0.10;;;4.50;99.90;;;;;;5037139;28;20033;-76
2023/01/16 02:14:05;;;;;;;1.52;0.10;;;4.60;99.90;;;;;;5037306;28;20025;-76
2023/01/16 02:19:36;;;;;;;1.85;0.10;;;4.60;99.90;;;;;;5054877;28;20509;-76
2023/01/16 02:22:24;;;;;;;0.50;0.00;;;4.60;99.90;;;;;;5037228;28;20028;-77
2023/01/16 02:25:14;;;;;;;0.25;0.10;;;4.60;99.90;;;;;;5054816;28;20107;-76
2023/01/16 02:27:48;;;;;;;1.70;0.10;;;4.60;99.90;;;;;;5054669;28;20071;-76
2023/01/16 02:30:54;;;;;;;0.10;0.10;;;4.60;99.90;;;;;;5054331;28;20071;-76
2023/01/16 02:33:37;;;;;;;2.25;0.20;;;4.60;99.90;;;;;;5036488;28;20043;-76
2023/01/16 02:36:30;;;;;;;0.90;0.22;;;4.60;99.90;;;;;;5036601;28;20053;-77
2023/01/16 02:39:18;;;;;;;1.00;0.38;;;4.60;99.90;;;;;;5036597;28;20055;-76
2023/01/16 02:42:06;;;;;;;0.50;0.30;;;4.60;99.90;;;;;;5036657;28;20035;-76
2023/01/16 02:44:59;;;;;;;0.40;0.10;;;4.60;99.90;;;;;;5054985;28;20072;-77
2023/01/16 02:47:31;;;;;;;1.08;0.40;;;4.50;99.90;;;;;;5036642;28;20025;-76
2023/01/16 02:50:18;;;;;;;0.95;0.30;;;4.40;99.90;;;;;;5036511;28;20036;-76
2023/01/16 02:52:44;;;;;;;1.05;0.20;;;4.40;99.90;;;;;;5036299;28;20032;-77
2023/01/16 02:55:34;;;;;;;0.57;0.28;;;4.30;99.90;;;;;;5054430;28;20028;-76
2023/01/16 02:58:03;;;;;;;1.50;0.20;;;4.30;99.90;;;;;;5054129;28;20090;-77
2023/01/16 03:00:30;;;;;;;0.40;0.30;;;4.20;99.90;;;;;;5054108;28;20104;-76
2023/01/16 03:02:56;;;;;;;0.93;0.22;;;4.20;99.90;;;;;;5054171;28;20044;-77
2023/01/16 03:05:22;;;;;;;1.85;0.35;;;4.20;99.90;;;;;;5054190;28;20025;-76
2023/01/16 03:07:48;;;;;;;1.17;0.20;;;4.20;99.90;;;;;;5054138;28;20021;-76
2023/01/16 03:10:38;;;;;;;3.53;0.30;;;4.20;99.90;;;;;;5054134;28;20021;-77
2023/01/16 03:13:09;;;;;;;0.10;0.10;;;4.20;99.90;;;;;;5036298;28;20071;-77
2023/01/16 03:16:02;;;;;;;0.70;0.05;;;4.10;99.90;;;;;;5035681;28;20035;-77
2023/01/16 03:19:06;;;;;;;0.10;0.10;;;4.10;99.90;;;;;;5054069;28;20024;-76
2023/01/16 03:21:57;;;;;;;0.30;0.10;;;4.00;99.90;;;;;;5002851;28;20052;-76
2023/01/16 03:24:58;;;;;;;0.80;0.10;;;4.00;99.90;;;;;;4992082;28;20124;-77
2023/01/16 03:27:49;;;;;;;0.80;0.10;;;4.00;99.90;;;;;;5053670;28;20098;-77
2023/01/16 03:30:31;;;;;;;1.60;0.10;;;4.00;99.90;;;;;;5053448;28;20398;-76
2023/01/16 03:33:18;;;;;;;1.58;0.15;;;4.00;99.90;;;;;;5053818;28;20041;-76
2023/01/16 03:35:53;;;;;;;0.75;0.17;;;4.00;99.90;;;;;;5035898;28;20355;-77
2023/01/16 03:38:22;;;;;;;1.20;0.10;;;3.90;99.90;;;;;;5053640;28;20481;-77
2023/01/16 03:40:50;;;;;;;1.75;0.10;;;3.90;99.90;;;;;;5053847;28;20021;-76
2023/01/16 03:43:25;;;;;;;1.00;0.20;;;3.90;99.90;;;;;;5053768;28;20135;-76
2023/01/16 03:46:11;;;;;;;2.42;0.20;;;3.90;99.90;;;;;;5035917;28;20029;-76
2023/01/16 03:48:40;;;;;;;2.92;0.82;;;3.90;99.90;;;;;;5035905;28;20119;-76
2023/01/16 03:51:08;;;;;;;1.77;0.20;;;3.90;99.90;;;;;;5035689;28;20041;-76
2023/01/16 03:53:41;;;;;;;0.63;0.27;;;3.90;99.90;;;;;;5035758;28;20128;-77
2023/01/16 03:56:43;;;;;;;2.20;0.40;;;3.90;99.90;;;;;;5053445;28;20267;-76
2023/01/16 03:59:09;;;;;;;2.13;0.30;;;3.90;99.90;;;;;;5053327;28;20351;-77
2023/01/16 04:01:45;;;;;;;5.22;0.40;;;3.90;99.90;;;;;;5035858;28;20462;-77
2023/01/16 04:04:48;;;;;;;1.90;0.10;;;3.90;99.90;;;;;;5053665;28;20479;-77
2023/01/16 04:07:34;;;;;;;0.57;0.20;;;3.90;99.90;;;;;;5053335;28;20075;-76
2023/01/16 04:10:05;;;;;;;0.50;0.10;;;3.90;99.90;;;;;;5053566;28;20060;-76
2023/01/16 04:12:36;;;;;;;0.80;0.20;;;3.90;99.90;;;;;;5053112;28;20489;-76
2023/01/16 04:15:05;;;;;;;1.20;0.30;;;3.90;99.90;;;;;;5035837;28;20037;-76
2023/01/16 04:17:31;;;;;;;1.45;0.95;;;3.80;99.90;;;;;;5035437;28;20021;-76
2023/01/16 04:19:57;;;;;;;0.55;0.45;;;3.80;99.90;;;;;;5053121;28;20029;-76
2023/01/16 04:22:25;;;;;;;2.22;0.47;;;3.80;99.90;;;;;;5035381;28;20040;-76
2023/01/16 04:24:54;;;;;;;0.60;0.30;;;3.80;99.90;;;;;;5053149;28;20021;-76
2023/01/16 04:27:20;;;;;;;0.50;0.40;;;3.70;99.90;;;;;;5035969;28;20628;-77
2023/01/16 04:29:46;;;;;;;0.77;0.30;;;3.70;99.90;;;;;;5056848;28;20104;-76
2023/01/16 04:32:12;;;;;;;1.33;0.43;;;3.70;99.90;;;;;;5056716;28;20375;-76
2023/01/16 04:34:38;;;;;;;1.95;0.30;;;3.70;99.90;;;;;;5039680;28;20455;-76
2023/01/16 04:37:04;;;;;;;2.42;0.30;;;3.70;99.90;;;;;;5056533;28;20031;-76
2023/01/16 04:39:29;;;;;;;2.75;0.30;;;3.70;99.90;;;;;;5056425;28;20556;-77
2023/01/16 04:41:55;;;;;;;2.80;0.30;;;3.60;99.90;;;;;;5038745;28;20032;-77
2023/01/16 04:44:21;;;;;;;1.63;0.40;;;3.70;99.90;;;;;;5039039;28;20064;-77
2023/01/16 04:46:46;;;;;;;4.13;0.77;;;3.70;99.90;;;;;;5038877;28;20025;-77
2023/01/16 04:49:12;;;;;;;1.00;0.43;;;3.70;99.90;;;;;;5038653;28;20063;-76
2023/01/16 04:51:38;;;;;;;3.45;0.80;;;3.70;99.90;;;;;;5056381;28;20124;-76
2023/01/16 04:54:12;;;;;;;1.00;0.45;;;3.70;99.90;;;;;;5056580;28;20528;-76
2023/01/16 04:56:38;;;;;;;4.30;0.50;;;3.70;99.90;;;;;;5038918;28;20032;-76
2023/01/16 04:59:04;;;;;;;0.68;0.60;;;3.70;99.90;;;;;;5038844;28;20445;-76
2023/01/16 05:01:34;;;;;;;1.25;0.85;;;3.70;99.90;;;;;;5057320;28;20037;-77
2023/01/16 05:04:03;;;;;;;1.90;0.70;;;3.70;99.90;;;;;;5039758;28;20094;-76
2023/01/16 05:06:29;;;;;;;;;;;3.60;99.90;;;;;;5039555;28;20466;-77
2023/01/16 05:08:54;;;;;;;1.38;0.73;;;3.60;99.90;;;;;;5038454;28;19909;-77
2023/01/16 05:11:20;;;;;;;2.67;0.35;;;3.60;99.90;;;;;;5055888;28;20063;-76
2023/01/16 05:13:46;;;;;;;0.63;0.20;;;3.60;99.90;;;;;;5038858;28;20025;-76
2023/01/16 05:16:11;;;;;;;4.13;0.50;;;3.60;99.90;;;;;;5055919;28;20021;-76
2023/01/16 05:18:37;;;;;;;0.43;0.15;;;3.60;99.90;;;;;;5056120;28;20038;-75
2023/01/16 05:21:04;;;;;;;2.28;0.52;;;3.60;99.90;;;;;;5038036;28;20029;-76
2023/01/16 05:23:33;;;;;;;0.77;0.60;;;3.70;99.90;;;;;;5055941;28;20032;-77
2023/01/16 05:25:59;;;;;;;1.05;0.50;;;3.70;99.90;;;;;;5055881;28;20029;-76
2023/01/16 05:28:25;;;;;;;0.82;0.50;;;3.70;99.90;;;;;;5037579;28;20494;-76
2023/01/16 05:30:51;;;;;;;1.48;1.02;;;3.70;99.90;;;;;;5055987;28;20029;-76
2023/01/16 05:33:17;;;;;;;2.05;0.90;;;3.70;99.90;;;;;;5056068;28;20470;-75
2023/01/16 05:35:42;;;;;;;3.08;1.13;;;3.70;99.90;;;;;;5056009;28;20031;-76
2023/01/16 05:38:08;;;;;;;3.25;0.95;;;3.70;99.90;;;;;;5037643;28;20036;-75
2023/01/16 05:40:34;;;;;;;2.33;0.60;;;3.70;99.90;;;;;;5055261;28;20067;-77
2023/01/16 05:42:59;;;;;;;3.42;0.90;;;3.70;99.90;;;;;;5055592;28;20108;-76
2023/01/16 05:45:25;;;;;;;5.38;0.88;;;3.70;99.90;;;;;;5055641;28;20033;-77
2023/01/16 05:47:51;;;;;;;1.33;1.23;;;3.70;99.90;;;;;;5037659;28;20104;-76
2023/01/16 05:50:17;;;;;;;1.88;0.40;;;3.70;99.90;;;;;;5055856;28;20031;-76
2023/01/16 05:52:42;;;;;;;5.60;0.95;;;3.70;99.90;;;;;;5055023;28;20406;-75
2023/01/16 05:55:08;;;;;;;4.18;1.02;;;3.70;99.90;;;;;;5055228;28;20063;-75
2023/01/16 05:57:34;;;;;;;1.35;0.80;;;3.70;99.90;;;;;;5055721;28;20040;-76
2023/01/16 05:59:59;;;;;;;7.22;0.98;;;3.70;99.90;;;;;;5055693;28;20379;-76
2023/01/16 06:02:25;;;;;;;4.13;1.15;;;3.70;99.90;;;;;;5055322;28;20033;-75
2023/01/16 06:04:51;;;;;;;2.08;0.32;;;3.70;99.90;;;;;;5037481;28;20033;-76
2023/01/16 06:07:17;;;;;;;0.32;0.22;;;3.80;99.90;;;;;;5055332;28;20554;-75
2023/01/16 06:09:43;;;;;;;2.30;0.68;;;3.80;99.90;;;;;;5055458;28;20100;-76
2023/01/16 06:12:17;;;;;;;3.72;0.40;;;3.90;99.90;;;;;;5037338;28;20470;-76
2023/01/16 06:14:43;;;;;;;3.35;0.68;;;3.90;99.90;;;;;;5037549;28;20207;-76
2023/01/16 06:17:09;;;;;;;2.05;0.80;;;4.00;99.90;;;;;;5037221;28;20382;-76
2023/01/16 06:19:35;;;;;;;3.80;1.25;;;3.90;99.90;;;;;;5054659;28;20082;-76
2023/01/16 06:22:01;;;;;;;4.78;1.17;;;3.90;99.90;;;;;;5054952;28;20410;-76
2023/01/16 06:24:26;;;;;;;4.40;0.85;;;3.90;99.90;;;;;;5037464;28;20025;-76
2023/01/16 06:26:52;;;;;;;1.10;0.68;;;3.90;99.90;;;;;;5036773;28;20477;-75
2023/01/16 06:29:18;;;;;;;2.85;1.00;;;3.90;99.90;;;;;;5054716;28;20370;-76
2023/01/16 06:31:43;;;;;;;3.63;1.10;;;3.90;99.90;;;;;;5054546;28;20071;-76
2023/01/16 06:34:09;;;;;;;9.90;4.68;;;3.80;99.90;;;;;;5036642;28;20029;-76
2023/01/16 06:36:34;;;;;;;8.82;5.07;;;3.80;99.90;;;;;;5036431;28;20067;-76
2023/01/16 06:39:00;;;;;;;11.35;4.35;;;3.80;99.90;;;;;;5054431;28;20026;-76
2023/01/16 06:41:26;;;;;;;7.50;2.90;;;3.80;99.90;;;;;;5054688;28;20040;-76
2023/01/16 06:43:51;;;;;;;7.93;1.85;;;3.80;99.90;;;;;;5054117;28;20025;-76
2023/01/16 06:46:17;;;;;;;2.45;1.58;;;3.80;99.90;;;;;;5053995;28;20406;-76
2023/01/16 06:48:43;;;;;;;2.42;1.27;;;3.70;99.90;;;;;;5054813;28;20070;-76
2023/01/16 06:51:10;;;;;;;4.38;1.52;;;3.80;99.90;;;;;;5036576;28;20117;-76
2023/01/16 06:53:36;;;;;;;6.15;1.60;;;3.70;99.90;;;;;;5036330;28;20540;-76
2023/01/16 06:56:02;;;;;;;5.63;1.83;;;3.70;99.90;;;;;;5036416;28;20025;-76
2023/01/16 06:58:28;;;;;;;5.72;3.08;;;3.70;99.90;;;;;;5036242;28;20159;-76
2023/01/16 07:00:55;;;;;;;4.18;1.45;;;3.70;99.90;;;;;;5036238;28;20471;-76
2023/01/16 07:03:21;;;;;;;2.67;1.10;;;3.70;99.90;;;;;;5054403;28;20096;-75
2023/01/16 07:05:47;;;;;;;7.65;1.38;;;3.70;99.90;;;;;;5053813;28;20031;-76
2023/01/16 07:08:13;;;;;;;6.63;1.00;;;3.70;99.90;;;;;;5036531;28;20386;-76
2023/01/16 07:10:39;;;;;;;7.03;1.63;;;3.70;99.90;;;;;;5054124;28;20043;-78
2023/01/16 07:13:05;;;;;;;4.30;1.40;;;3.70;99.90;;;;;;5054013;28;20116;-76
2023/01/16 07:23:53;;;;;;;12.68;2.20;;;3.80;99.90;;;;;;5053896;28;20083;-77
2023/01/16 07:26:20;;;;;;;13.07;1.63;;;3.80;99.90;;;;;;5054115;28;20465;-77
2023/01/16 07:28:48;;;;;;;5.00;1.48;;;3.80;99.90;;;;;;5054734;28;20049;-77
2023/01/16 07:31:14;;;;;;;7.53;1.52;;;2.30;99.90;;;;;;5054423;28;20513;-77
2023/01/16 07:33:39;;;;;;;5.25;1.35;;;3.80;99.90;;;;;;5054343;28;20026;-74
2023/01/16 07:36:05;;;;;;;7.20;1.63;;;3.80;99.90;;;;;;5036231;28;20470;-77
2023/01/16 07:38:31;;;;;;;6.90;1.90;;;3.80;99.90;;;;;;5036189;28;20098;-78
2023/01/16 07:40:57;;;;;;;19.02;3.28;;;3.80;99.90;;;;;;5036419;28;20025;-77
2023/01/16 07:43:22;;;;;;;18.20;2.95;;;3.90;99.90;;;;;;5053852;28;20025;-74
2023/01/16 07:45:52;;;;;;;6.22;2.30;;;3.90;99.90;;;;;;5054199;28;20108;-78
2023/01/16 07:48:22;;;;;;;8.23;2.80;;;3.90;99.90;;;;;;5053632;28;20019;-78
2023/01/16 07:50:56;;;;;;;6.88;2.45;;;4.00;99.90;;;;;;5035878;28;20031;-77
2023/01/16 07:53:23;;;;;;;7.80;2.50;;;4.00;99.90;;;;;;5035396;28;20120;-77
2023/01/16 07:55:51;;;;;;;8.18;2.75;;;4.00;99.90;;;;;;5053542;28;20572;-77
2023/01/16 07:58:17;;;;;;;7.07;2.97;;;4.00;99.90;;;;;;5035822;28;20470;-75
2023/01/16 08:00:44;;;;;;;7.68;2.15;;;4.10;99.90;;;;;;5053330;28;20032;-77
2023/01/16 08:03:10;;;;;;;6.65;2.03;;;4.00;99.90;;;;;;5038418;28;20356;-77
2023/01/16 08:05:36;;;;;;;10.40;2.78;;;4.00;99.90;;;;;;5057370;28;20059;-77
2023/01/16 08:08:02;;;;;;;10.52;3.15;;;4.00;99.90;;;;;;5057389;28;20037;-78
2023/01/16 08:10:27;;;;;;;7.65;2.00;;;4.10;99.90;;;;;;5039081;28;20029;-78
2023/01/16 08:12:53;;;;;;;10.80;2.30;;;4.00;99.90;;;;;;5039449;28;20128;-79
2023/01/16 08:15:19;;;;;;;7.32;2.33;;;4.10;99.90;;;;;;5057470;28;20025;-76
2023/01/16 08:17:44;;;;;;;13.43;2.65;;;4.10;99.90;;;;;;5039457;28;20032;-75
2023/01/16 08:20:11;;;;;;;24.20;3.75;;;4.10;99.90;;;;;;5057288;28;20104;-78
2023/01/16 08:22:45;;;;;;;9.90;2.38;;;4.10;99.90;;;;;;5039402;28;20436;-77
2023/01/16 08:25:12;;;;;;;10.48;2.55;;;4.20;99.90;;;;;;5039557;28;20021;-78
2023/01/16 08:27:38;;;;;;;10.75;2.67;;;4.20;99.90;;;;;;5038766;28;20402;-77
2023/01/16 08:30:05;;;;;;;20.73;3.50;;;4.20;99.90;;;;;;5057446;28;20025;-78
2023/01/16 08:32:31;;;;;;;6.47;1.70;;;4.30;99.90;;;;;;5057222;28;20033;-78
2023/01/16 08:34:56;;;;;;;7.00;1.92;;;4.40;99.90;;;;;;5056735;28;20025;-77
2023/01/16 08:37:22;;;;;;;5.05;2.70;;;4.50;99.90;;;;;;5057076;28;20573;-77
2023/01/16 08:39:48;;;;;;;4.55;1.85;;;4.70;99.90;;;;;;5056769;28;20112;-77
2023/01/16 08:53:11;;;;;;;3.38;1.08;;;5.10;99.90;;;;;;5056720;28;20031;-77
2023/01/16 08:55:38;;;;;;;3.83;1.55;;;5.10;99.90;;;;;;5038445;28;20020;-77
2023/01/16 08:58:04;;;;;;;8.52;1.60;;;5.20;99.90;;;;;;5039967;28;20036;-77
2023/01/16 09:00:30;;;;;;;4.53;1.90;;;5.30;99.90;;;;;;5038343;28;20025;-77
2023/01/16 09:02:59;;;;;;;1.88;0.60;;;5.30;99.90;;;;;;5056556;28;20529;-77
2023/01/16 09:05:25;;;;;;;1.33;0.40;;;5.40;99.90;;;;;;5056300;28;20017;-77
2023/01/16 09:07:51;;;;;;;2.80;0.50;;;5.50;99.90;;;;;;5047923;28;20065;-77
2023/01/16 09:10:16;;;;;;;1.75;0.25;;;5.60;99.90;;;;;;5037931;28;20521;-77
2023/01/16 09:15:27;;;;;;;0.98;0.40;;;5.70;99.90;;;;;;5036726;28;20043;-78
2023/01/16 09:17:52;;;;;;;4.68;0.20;;;5.80;99.90;;;;;;5026510;28;20115;-77
2023/01/16 09:20:18;;;;;;;1.02;0.40;;;5.90;99.90;;;;;;5047606;28;20032;-76
2023/01/16 09:22:44;;;;;;;1.83;0.52;;;5.90;99.90;;;;;;5047122;28;20037;-78
2023/01/16 09:25:10;;;;;;;1.20;0.20;;;5.90;99.90;;;;;;5037373;28;20095;-77
2023/01/16 09:27:36;;;;;;;10.50;0.75;;;6.00;99.90;;;;;;5034392;28;20084;-77
2023/01/16 09:30:02;;;;;;;1.35;0.40;;;5.90;99.90;;;;;;5031457;28;20487;-77
2023/01/16 09:32:27;;;;;;;0.57;0.10;;;6.00;99.90;;;;;;5029756;28;20033;-77
2023/01/16 09:34:53;;;;;;;1.65;0.80;;;5.90;99.90;;;;;;5044024;28;20025;-77
2023/01/16 09:37:19;;;;;;;0.52;0.05;;;5.90;99.90;;;;;;5022106;28;20021;-77
2023/01/16 09:39:44;;;;;;;0.40;0.00;;;5.90;99.90;;;;;;5046992;28;20051;-77
2023/01/16 09:45:34;;;;;;;1.50;0.25;;;5.80;99.90;;;;;;4960759;28;20098;-77
2023/01/16 09:48:04;;;;;;;0.82;0.00;;;5.80;99.90;;;;;;5029770;28;20494;-77
2023/01/16 09:50:36;;;;;;;4.93;0.10;;;5.80;99.90;;;;;;5034313;28;20033;-78
2023/01/16 09:58:46;;;;;;;3.78;0.32;;;5.80;99.90;;;;;;5046239;28;20044;-76
2023/01/16 10:01:26;;;;;;;0.85;0.10;;;5.80;99.90;;;;;;5046852;28;20481;-76
2023/01/16 10:04:04;;;;;;;2.90;0.20;;;5.80;99.90;;;;;;5046848;28;20024;-77
2023/01/16 10:06:40;;;;;;;6.28;0.40;;;5.80;99.90;;;;;;5049089;28;20021;-78
2023/01/16 10:09:27;;;;;;;1.02;0.30;;;5.90;99.90;;;;;;5055299;28;20374;-77
2023/01/16 10:12:01;;;;;;;1.20;0.25;;;5.90;99.90;;;;;;5055637;28;20116;-77
2023/01/16 10:14:59;;;;;;;1.92;0.10;;;5.90;99.90;;;;;;5055064;28;20347;-77
2023/01/16 10:17:44;;;;;;;1.00;0.32;;;6.00;99.90;;;;;;5055627;28;20028;-78
2023/01/16 10:20:31;;;;;;;1.80;1.00;;;6.10;99.90;;;;;;5037260;28;20410;-78
2023/01/16 10:23:11;;;;;;;1.45;0.30;;;6.10;99.90;;;;;;5055003;28;20025;-77
2023/01/16 10:25:43;;;;;;;1.77;0.40;;;6.20;99.90;;;;;;5036591;28;20024;-77
2023/01/16 10:28:21;;;;;;;1.08;0.50;;;6.30;99.90;;;;;;5037423;28;20033;-77
2023/01/16 10:31:18;;;;;;;1.63;0.30;;;6.60;99.90;;;;;;5055502;28;20370;-78
2023/01/16 10:33:56;;;;;;;2.20;0.13;;;7.00;99.90;;;;;;5024995;28;20040;-78
2023/01/16 10:36:26;;;;;;;2.47;0.30;;;7.30;99.90;;;;;;5037072;28;20028;-77
2023/01/16 10:38:56;;;;;;;1.00;0.10;;;7.60;99.90;;;;;;5054704;28;20051;-78
2023/01/16 10:50:02;;;;;;;0.35;0.10;;;6.70;99.90;;;;;;5054123;28;20040;-77
2023/01/16 10:52:28;;;;;;;0.50;0.15;;;6.30;99.90;;;;;;5054232;28;20029;-77
2023/01/16 10:54:56;;;;;;;0.30;0.00;;;6.20;99.90;;;;;;5054082;28;20068;-77
2023/01/16 10:57:22;;;;;;;2.42;0.20;;;6.20;99.90;;;;;;5054254;28;20021;-77
2023/01/16 10:59:56;;;;;;;0.77;0.10;;;6.10;99.90;;;;;;5053897;28;20033;-77
2023/01/16 11:02:47;;;;;;;0.50;0.00;;;6.10;99.90;;;;;;5054649;28;20025;-77
2023/01/16 11:05:23;;;;;;;0.52;0.10;;;6.10;99.90;;;;;;5036388;28;20025;-77
2023/01/16 11:07:55;;;;;;;0.52;0.17;;;6.20;99.90;;;;;;5036255;28;20029;-77
2023/01/16 11:10:23;;;;;;;2.28;0.10;;;6.20;99.90;;;;;;5053908;28;20028;-77
2023/01/16 11:18:32;;;;;;;0.65;0.10;;;6.20;99.90;;;;;;5053861;28;20056;-77
2023/01/16 11:21:24;;;;;;;0.70;0.20;;;6.60;99.90;;;;;;5053921;28;20031;-78
2023/01/16 11:24:00;;;;;;;1.10;0.30;;;6.90;99.90;;;;;;5053953;28;20021;-77
2023/01/16 11:26:27;;;;;;;2.45;0.30;;;7.20;99.90;;;;;;5036513;28;20025;-78
2023/01/16 11:28:55;;;;;;;2.55;0.22;;;7.00;99.90;;;;;;5033501;28;20049;-78
2023/01/16 11:31:30;;;;;;;0.57;0.40;;;7.00;99.90;;;;;;5053769;28;20074;-78
2023/01/16 11:34:01;;;;;;;0.93;0.30;;;7.20;99.90;;;;;;5035738;28;20031;-77
2023/01/16 11:36:31;;;;;;;1.05;0.65;;;7.00;99.90;;;;;;5036144;28;20079;-78
2023/01/16 11:38:57;;;;;;;0.88;0.30;;;6.60;99.90;;;;;;5053836;28;20021;-78
2023/01/16 11:41:36;;;;;;;2.70;0.70;;;6.50;99.90;;;;;;5053885;28;20032;-77
2023/01/16 11:47:12;;;;;;;0.50;0.50;;;6.20;99.90;;;;;;5053510;28;20071;-77
2023/01/16 11:49:46;;;;;;;2.83;0.80;;;5.80;99.90;;;;;;5036127;28;20500;-78
2023/01/16 11:52:28;;;;;;;1.80;0.80;;;5.60;99.90;;;;;;5037390;28;20036;-77
2023/01/16 11:54:55;;;;;;;1.38;1.00;;;5.40;99.90;;;;;;5039126;28;20021;-77
2023/01/16 11:57:53;;;;;;;2.25;1.00;;;5.30;99.90;;;;;;5038395;28;20027;-77
2023/01/16 12:00:45;;;;;;;1.58;0.82;;;5.30;99.90;;;;;;5034826;28;20064;-77
2023/01/16 12:03:42;;;;;;;3.30;1.02;;;5.30;99.90;;;;;;5055715;28;20039;-78
2023/01/16 12:06:30;;;;;;;3.10;1.00;;;5.30;99.90;;;;;;5038913;28;20039;-76
2023/01/16 12:09:25;;;;;;;4.28;1.90;;;5.30;99.90;;;;;;5056203;28;20021;-77
2023/01/16 12:15:12;;;;;;;2.03;1.50;;;5.40;99.90;;;;;;5054008;28;20032;-77
2023/01/16 12:17:55;;;;;;;2.05;1.45;;;5.30;99.90;;;;;;5053816;28;20021;-77
2023/01/16 12:20:26;;;;;;;1.33;1.23;;;5.40;99.90;;;;;;5036019;28;20021;-77
2023/01/16 12:22:58;;;;;;;2.00;1.48;;;5.50;99.90;;;;;;5037108;28;20021;-77
2023/01/16 12:25:28;;;;;;;1.98;1.50;;;5.40;99.90;;;;;;5036791;28;20075;-77
2023/01/16 12:27:58;;;;;;;1.75;1.50;;;5.30;99.90;;;;;;5036262;28;20087;-77
2023/01/16 12:30:24;;;;;;;2.70;1.20;;;5.10;99.90;;;;;;5054267;28;20019;-77
2023/01/16 12:33:15;;;;;;;1.92;1.10;;;5.20;99.90;;;;;;5035895;28;20029;-77
2023/01/16 12:35:58;;;;;;;3.97;1.13;;;5.30;99.90;;;;;;5035546;28;20028;-77
2023/01/16 12:38:35;;;;;;;1.40;1.10;;;5.30;99.90;;;;;;5053866;28;20021;-77
2023/01/16 12:44:10;;;;;;;2.83;1.40;;;5.30;99.90;;;;;;5053551;28;20112;-77
2023/01/16 12:47:09;;;;;;;1.27;1.17;;;5.30;99.90;;;;;;5053384;28;20048;-78
2023/01/16 12:49:57;;;;;;;2.05;1.42;;;5.30;99.90;;;;;;5025270;28;20017;-77
2023/01/16 12:52:41;;;;;;;2.05;1.15;;;5.20;99.90;;;;;;5056732;28;20035;-69
2023/01/16 12:55:39;;;;;;;1.65;1.38;;;5.10;99.90;;;;;;5056499;28;20365;-77
2023/01/16 12:58:22;;;;;;;2.53;1.35;;;5.00;99.90;;;;;;5001671;28;20033;-78
2023/01/16 13:01:06;;;;;;;1.20;1.05;;;4.90;99.90;;;;;;5056722;28;20021;-79
2023/01/16 13:03:39;;;;;;;1.65;1.30;;;4.80;99.90;;;;;;5038990;28;20426;-78
2023/01/16 13:06:10;;;;;;;2.55;1.10;;;4.80;99.90;;;;;;5038820;28;20025;-78
2023/01/16 13:09:04;;;;;;;2.60;2.05;;;4.80;99.90;;;;;;5056381;28;20505;-78
2023/01/16 13:14:24;;;;;;;1.08;1.00;;;4.90;99.90;;;;;;5056481;28;20542;-78
2023/01/16 13:17:05;;;;;;;1.83;1.55;;;4.90;99.90;;;;;;5038149;28;20078;-74
2023/01/16 13:19:36;;;;;;;1.25;1.10;;;4.90;99.90;;;;;;5038400;28;20476;-77
2023/01/16 13:22:09;;;;;;;2.70;1.20;;;4.90;99.90;;;;;;5056350;28;20021;-76
2023/01/16 13:25:14;;;;;;;3.78;1.08;;;4.80;99.90;;;;;;5056379;28;20083;-77
2023/01/16 13:27:48;;;;;;;1.33;0.90;;;4.80;99.90;;;;;;4989461;28;20049;-77
2023/01/16 13:30:18;;;;;;;3.67;1.02;;;4.80;99.90;;;;;;5038548;28;20060;-78
2023/01/16 13:32:48;;;;;;;5.43;1.10;;;4.80;99.90;;;;;;5056047;28;20043;-77
2023/01/16 13:35:34;;;;;;;4.00;0.90;;;4.80;99.90;;;;;;5056322;28;20024;-77
2023/01/16 13:38:18;;;;;;;0.60;0.60;;;4.90;99.90;;;;;;5055782;28;20029;-78
2023/01/16 13:41:17;;;;;;;0.52;0.50;;;4.80;99.90;;;;;;5038217;28;20082;-79
2023/01/16 13:46:51;;;;;;;2.05;0.70;;;4.70;99.90;;;;;;5027412;28;20119;-77
2023/01/16 13:49:24;;;;;;;2.83;0.70;;;4.60;99.90;;;;;;5025609;28;20467;-77
2023/01/16 13:51:52;;;;;;;0.93;0.68;;;4.60;99.90;;;;;;5033543;28;20047;-77
2023/01/16 13:54:41;;;;;;;2.35;1.00;;;4.60;99.90;;;;;;5012640;28;20037;-75
2023/01/16 13:57:19;;;;;;;1.85;0.50;;;4.60;99.90;;;;;;5034492;28;20067;-75
2023/01/16 13:59:49;;;;;;;2.10;0.80;;;4.60;99.90;;;;;;5015780;28;20025;-77
2023/01/16 14:02:36;;;;;;;1.60;1.08;;;4.60;99.90;;;;;;5018498;28;20091;-77
2023/01/16 14:05:08;;;;;;;1.58;0.73;;;4.50;99.90;;;;;;5026407;28;20025;-78
2023/01/16 14:10:47;;;;;;;1.52;0.73;;;4.50;99.90;;;;;;5055384;28;20391;-79
2023/01/16 14:13:15;;;;;;;1.67;0.65;;;4.50;99.90;;;;;;5037363;28;20127;-77
2023/01/16 14:18:41;;;;;;;2.05;0.63;;;4.40;99.90;;;;;;5054988;28;20453;-78
2023/01/16 14:24:41;;;;;;;3.75;0.80;;;4.30;99.90;;;;;;4930181;29;20071;-72
2023/01/16 14:27:32;;;;;;;5.28;1.08;;;4.30;99.90;;;;;;4935513;29;20125;-73
2023/01/16 14:30:01;;;;;;;1.98;1.02;;;4.20;99.90;;;;;;4935437;29;20057;-72
2023/01/16 14:32:30;;;;;;;;;;;4.20;99.90;;;;;;4919607;29;20032;-70
2023/01/16 14:34:57;;;;;;;2.50;1.17;;;4.20;99.90;;;;;;4919220;29;19921;-70
2023/01/16 14:37:26;;;;;;;1.58;0.77;;;4.20;99.90;;;;;;4919259;29;20059;-73